Terminal Aerodrome Forecast
Issued by NWS

Home | Current Version | Previous Version | Text Only | Print | Product List | Glossary On
Versions: 1 2 3 4 5 6 7 8 9 10 11 12 13 14 15
000
FTUS41 KPHI 270520
TAFPNE
TAF
KPNE 270520Z 2706/2806 30004KT P6SM SCT060
     FM271100 33010KT P6SM BKN060
     FM271600 33012G20KT P6SM BKN050
     FM280200 34012KT P6SM BKN120=

USA.gov is the U.S. government's official web portal to all federal, state and local government web resources and services.